CheckWX is a tool to help pilots better visualize weather data.  It is not intended as a substitute for an official pre-flight weather briefing.

02:54:25 UTC

MMMX METAR
Licenciado Benito Juarez International Airport
Mexico City, Mexico
Current

1 hour ago

MMMX 230145Z 22005KT 10SM SCT080 OVC250 21/02 A3028 NOSIG RMK 8/032 HZY BINOVC
Observed
Feb-23 @ 01:45 UTC
Wind
  • 220° at 5 KTS
Visibility
10 SM
Flight Rules
VFR
Cloud Levels
  • Scattered at 8,000' AGL
  • Overcast at 25,000' AGL
Temperature
21°C / 70°F
Dewpoint
C / 36°F
Humidity
29%
Altimeter
30.28" Hg
Pressure
1025.42 hPa
Previous

1 hour ago

MMMX 230142Z 22005KT 10SM SCT080 OVC250 21/02 A3027 NOSIG RMK 8/032 HZY BINOVC
Observed
Feb-23 @ 01:42 UTC
Wind
  • 220° at 5 KTS
Visibility
10 SM
Flight Rules
VFR
Cloud Levels
  • Scattered at 8,000' AGL
  • Overcast at 25,000' AGL
Temperature
21°C / 70°F
Dewpoint
C / 36°F
Humidity
29%
Altimeter
30.27" Hg
Pressure
1025.02 hPa
Previous

2 hours ago

MMMX 230045Z 24010KT 10SM FEW080 OVC250 23/02 A3024 NOSIG RMK 8/037 HZY
Observed
Feb-23 @ 00:45 UTC
Wind
  • 240° at 10 KTS
Visibility
10 SM
Flight Rules
VFR
Cloud Levels
  • Few at 8,000' AGL
  • Overcast at 25,000' AGL
Temperature
23°C / 73°F
Dewpoint
C / 36°F
Humidity
25%
Altimeter
30.24" Hg
Pressure
1024.02 hPa